To NAV CANADA Home Page Login to a new session Search on AWWS site Disclaimer Vers la page française équivalente Tips FAQ What's new on the site To the Forecasts and Observations / NOTAM section To "File a Flight Plan" website Publications and other links Update of the User's profile FIC Telephone Numbers My Weather Data Folder Route Weather Data Regional Weather Data Local Weather Data To the Forecasts and Observations / NOTAM section
Request Generated 11/13/2018 at 18:04:54 UTC . Weather information available at that time is displayed.

METAR/TAF

KUGAARUK/NU    

METAR CYBB 131800Z 22011KT 10SM FEW018 BKN220 M23/M27 A3017 RMK SF2CS3 SLP219=
METAR CYBB 131700Z 24011KT 15SM FEW017 BKN220 M23/M27 A3017 RMK SF2CS3 HALO SLP220=
SPECI CYBB 131642Z 23011KT 10SM SCT016 BKN220 M23/M26 A3017 RMK SF3CS2 DIST BR ALQDS HALO SLP220=
METAR CYBB 131600Z CCB 22014KT 10SM DRSN SCT016 SCT200 M23/M26 A3017 RMK ST4CI1 CI TR DIST BR ALQDS SLP219=
METAR CYBB 131600Z CCA 22014KT 10SM DRSN SCT016 SCT200 M23/M26 A3017 RMK ST4CI1 CI TR VCBLSN SLP219=
METAR CYBB 131600Z 22014KT 10SM DRSN SCT016 SCT200 M23/M26 A3017 RMK ST4CI1 CI TR VCSH SLP219=

TAF CYBB 131438Z 1315/1324 22012KT P6SM SCT015 TEMPO 1315/1324 5SM
-SN OVC015
RMK NXT FCST BY 131900Z=
Your time UTC time
Weather data provided by Environment Canada and NAV CANADA